createdAt,value
2023-01-13T13:42:16.648Z,68.42
2023-01-13T13:48:16.622Z,68.58
2023-01-13T13:54:16.612Z,68.05
2023-01-13T14:00:16.681Z,67.68
2023-01-13T14:07:13.463Z,66.63
2023-01-13T14:13:13.414Z,67.16
2023-01-13T14:19:13.382Z,66.40
2023-01-13T14:25:13.382Z,67.73
2023-01-13T14:31:13.403Z,71.42
2023-01-13T14:37:13.353Z,67.18
2023-01-13T14:43:13.373Z,69.10
2023-01-13T14:49:13.377Z,69.27
2023-01-13T14:55:13.398Z,69.42
2023-01-13T15:01:13.542Z,69.49
2023-01-13T15:07:13.364Z,70.45
2023-01-13T15:13:13.486Z,69.94
2023-01-13T15:19:13.393Z,69.71
2023-01-13T15:25:13.355Z,70.50
2023-01-13T15:31:13.383Z,70.12
2023-01-13T15:37:13.396Z,71.35
2023-01-13T15:43:13.376Z,71.81
2023-01-13T15:49:13.347Z,72.14
2023-01-13T15:55:13.373Z,75.78
2023-01-13T16:01:13.426Z,79.00
2023-01-13T16:07:13.624Z,76.24
2023-01-13T16:13:13.592Z,77.39
2023-01-13T16:19:13.645Z,76.65
2023-01-13T16:25:13.627Z,72.64
2023-01-13T16:31:13.719Z,73.58
2023-01-13T16:37:13.709Z,74.63
2023-01-13T16:43:14.160Z,75.78
2023-01-13T16:49:13.708Z,77.43
2023-01-13T16:55:13.682Z,75.49
2023-01-13T17:01:13.887Z,75.14
2023-01-13T17:07:13.672Z,76.45
2023-01-13T17:13:16.295Z,77.60
2023-01-13T17:19:13.670Z,78.70
2023-01-13T17:25:13.676Z,78.70
2023-01-13T17:31:13.683Z,78.42
2023-01-13T17:37:13.724Z,77.88
2023-01-13T17:43:13.734Z,78.58
2023-01-13T17:49:13.722Z,80.39
2023-01-13T17:55:13.659Z,80.69
2023-01-13T18:01:13.868Z,81.57
2023-01-13T18:07:13.723Z,82.76
2023-01-13T18:13:13.712Z,82.41
2023-01-13T18:19:13.690Z,84.67
2023-01-13T18:25:13.677Z,83.47
2023-01-13T18:31:13.678Z,84.59
2023-01-13T18:37:13.657Z,83.85
2023-01-13T18:43:13.666Z,83.51
2023-01-13T18:49:13.671Z,83.87
2023-01-13T18:55:13.688Z,83.94
2023-01-13T19:01:13.796Z,82.72
2023-01-13T19:07:13.713Z,82.70
2023-01-13T19:13:13.725Z,84.86
2023-01-13T19:19:13.691Z,85.76
2023-01-13T19:25:13.666Z,85.98
2023-01-13T19:31:13.797Z,85.66
2023-01-13T19:37:13.654Z,87.31
2023-01-13T19:43:13.679Z,85.34
2023-01-13T19:49:13.674Z,84.51
2023-01-13T19:55:13.692Z,86.68
2023-01-13T20:01:13.721Z,86.35
2023-01-13T20:07:13.721Z,85.47
2023-01-13T20:13:13.724Z,85.07
2023-01-13T20:19:13.722Z,88.87
2023-01-13T20:25:13.727Z,90.80
2023-01-13T20:31:13.918Z,91.14
2023-01-13T20:37:13.694Z,92.23
2023-01-13T20:43:13.692Z,92.48
2023-01-13T20:49:13.688Z,93.18
2023-01-13T20:55:13.675Z,92.95
2023-01-13T21:01:13.755Z,96.31
2023-01-13T21:07:13.707Z,95.55
2023-01-13T21:13:13.812Z,93.34
2023-01-13T21:19:13.715Z,91.78
2023-01-13T21:25:13.708Z,92.05
2023-01-13T21:31:13.786Z,93.69
2023-01-13T21:37:13.710Z,97.41
2023-01-13T21:43:13.687Z,97.15
2023-01-13T21:49:13.689Z,96.01
2023-01-13T21:55:13.683Z,98.88
2023-01-13T22:01:13.771Z,98.62
2023-01-13T22:07:13.704Z,98.49
2023-01-13T22:13:13.660Z,97.10
2023-01-13T22:19:13.682Z,96.42
2023-01-13T22:25:13.687Z,98.07
2023-01-13T22:31:13.711Z,99.13
2023-01-13T22:37:13.645Z,99.88
2023-01-13T22:43:13.720Z,97.58
2023-01-13T22:49:13.673Z,97.63
2023-01-13T22:55:13.724Z,96.69
2023-01-13T23:01:13.741Z,96.54
2023-01-13T23:07:13.728Z,97.44
2023-01-13T23:13:13.770Z,97.75
2023-01-13T23:19:13.762Z,98.68
2023-01-13T23:25:13.778Z,98.95
2023-01-13T23:31:13.784Z,100.00
2023-01-13T23:37:13.740Z,100.00
2023-01-13T23:43:13.740Z,97.23
2023-01-13T23:49:13.761Z,97.39
2023-01-13T23:55:13.764Z,98.16
